createdAt,value
2018-12-12T00:00:22.923Z,4.90
2018-12-12T00:05:30.833Z,4.90
2018-12-12T00:10:35.673Z,4.90
2018-12-12T00:15:40.716Z,5.00
2018-12-12T00:20:45.608Z,5.00
2018-12-12T00:25:53.282Z,4.90
2018-12-12T00:30:56.741Z,4.80
2018-12-12T00:36:00.198Z,4.80
2018-12-12T00:41:09.240Z,4.80
2018-12-12T00:46:17.934Z,4.80
2018-12-12T00:51:20.866Z,4.80
2018-12-12T00:56:28.758Z,4.80
2018-12-12T01:01:32.748Z,4.80
2018-12-12T01:06:36.326Z,4.80
2018-12-12T01:11:46.931Z,4.80
2018-12-12T01:16:50.678Z,4.80
2018-12-12T01:21:54.394Z,4.90
2018-12-12T01:26:58.229Z,5.00
2018-12-12T01:32:01.815Z,5.00
2018-12-12T01:37:05.496Z,5.10
2018-12-12T01:42:08.417Z,5.10
2018-12-12T01:47:12.332Z,5.10
2018-12-12T01:52:17.319Z,5.10
2018-12-12T01:57:20.358Z,5.10
2018-12-12T02:02:23.287Z,5.10
2018-12-12T02:07:29.554Z,5.10
2018-12-12T02:12:35.446Z,5.10
2018-12-12T02:17:38.382Z,5.20
2018-12-12T02:22:42.297Z,5.20
2018-12-12T02:27:45.286Z,5.10
2018-12-12T02:32:48.778Z,5.00
2018-12-12T02:37:52.719Z,4.90
2018-12-12T02:42:56.348Z,4.80
2018-12-12T02:48:00.838Z,4.90
2018-12-12T02:53:06.758Z,4.80
2018-12-12T02:58:10.325Z,4.90
2018-12-12T03:03:15.334Z,4.80
2018-12-12T03:08:19.211Z,4.70
2018-12-12T03:13:25.053Z,4.70
2018-12-12T03:18:27.927Z,4.60
2018-12-12T03:23:32.734Z,4.60
2018-12-12T03:28:35.631Z,4.60
2018-12-12T03:33:39.250Z,4.60
2018-12-12T03:38:42.248Z,4.50
2018-12-12T03:43:45.158Z,4.50
2018-12-12T03:48:48.056Z,4.40
2018-12-12T03:53:52.765Z,4.40
2018-12-12T03:58:56.314Z,4.40
2018-12-12T04:04:05.260Z,4.40
2018-12-12T04:09:08.258Z,4.40
2018-12-12T04:14:11.793Z,4.50
2018-12-12T04:19:14.882Z,4.60
2018-12-12T04:24:20.602Z,4.60
2018-12-12T04:29:29.430Z,4.60
2018-12-12T04:34:33.359Z,4.60
2018-12-12T04:39:36.958Z,4.70
2018-12-12T04:44:39.854Z,4.70
2018-12-12T04:49:43.822Z,4.70
2018-12-12T04:54:47.310Z,4.70
2018-12-12T04:59:50.844Z,4.70
2018-12-12T05:04:54.790Z,4.80
2018-12-12T05:09:59.441Z,4.80
2018-12-12T05:15:05.062Z,4.80
2018-12-12T05:20:08.933Z,4.90
2018-12-12T05:25:15.550Z,4.90
2018-12-12T05:30:18.666Z,4.90
2018-12-12T05:35:22.210Z,4.80
2018-12-12T05:40:28.381Z,4.80
2018-12-12T05:45:31.608Z,4.80
2018-12-12T05:50:35.409Z,4.80
2018-12-12T05:55:38.364Z,4.90
2018-12-12T06:00:41.287Z,4.90
2018-12-12T06:05:44.207Z,4.90
2018-12-12T06:10:47.219Z,4.90
2018-12-12T06:15:50.810Z,4.90
2018-12-12T06:20:54.817Z,4.90
2018-12-12T06:25:58.338Z,5.00
2018-12-12T06:31:01.330Z,5.00
2018-12-12T06:36:04.979Z,5.00
2018-12-12T06:41:08.028Z,5.00
2018-12-12T06:46:13.183Z,5.00
2018-12-12T06:51:19.365Z,5.10
2018-12-12T06:56:24.027Z,5.10
2018-12-12T07:01:27.209Z,5.10
2018-12-12T07:06:30.127Z,5.10
2018-12-12T07:11:33.845Z,5.20
2018-12-12T07:16:36.778Z,5.20
2018-12-12T07:21:40.444Z,5.20
2018-12-12T07:26:44.034Z,5.30
2018-12-12T07:31:47.959Z,5.30
2018-12-12T07:36:51.885Z,5.30
2018-12-12T07:41:56.586Z,5.40
2018-12-12T07:47:02.504Z,5.50
2018-12-12T07:52:08.319Z,5.60
2018-12-12T07:57:12.726Z,5.70
2018-12-12T08:02:16.302Z,5.70
2018-12-12T08:07:20.011Z,5.80
2018-12-12T08:12:25.959Z,5.80
2018-12-12T08:17:28.890Z,5.80
2018-12-12T08:22:32.284Z,6.00
2018-12-12T08:27:35.865Z,6.10
2018-12-12T08:32:41.778Z,6.10
2018-12-12T08:37:45.290Z,6.10
2018-12-12T08:42:48.175Z,6.20
2018-12-12T08:47:51.128Z,6.20
2018-12-12T08:52:55.834Z,6.30
2018-12-12T08:57:58.722Z,6.40
2018-12-12T09:03:01.678Z,6.50
2018-12-12T09:08:08.135Z,6.50
2018-12-12T09:13:16.974Z,6.60
2018-12-12T09:18:20.390Z,6.50
2018-12-12T09:23:28.293Z,6.60
2018-12-12T09:28:31.354Z,6.70
2018-12-12T09:33:36.871Z,6.60
2018-12-12T09:38:42.328Z,6.60
2018-12-12T09:43:46.490Z,6.60
2018-12-12T09:48:51.432Z,6.60
2018-12-12T09:54:01.382Z,6.50
2018-12-12T09:59:07.398Z,6.50
2018-12-12T10:04:10.342Z,6.50
2018-12-12T10:09:14.107Z,6.50
2018-12-12T10:14:17.915Z,6.40
2018-12-12T10:19:20.918Z,6.40
2018-12-12T10:24:24.114Z,6.30
2018-12-12T10:29:27.914Z,6.20
2018-12-12T10:34:31.326Z,6.30
2018-12-12T10:39:35.377Z,6.30
2018-12-12T10:44:38.959Z,6.30
2018-12-12T10:49:41.896Z,6.30
2018-12-12T10:54:45.406Z,6.40
2018-12-12T10:59:49.442Z,6.30
2018-12-12T11:04:56.830Z,6.30
2018-12-12T11:10:00.322Z,6.30
2018-12-12T11:15:03.610Z,6.30
2018-12-12T11:20:07.394Z,6.40
2018-12-12T11:25:10.866Z,6.40
2018-12-12T11:30:14.390Z,6.50
2018-12-12T11:35:17.278Z,6.60
2018-12-12T11:40:20.110Z,6.60
2018-12-12T11:45:23.930Z,6.70
2018-12-12T11:50:27.454Z,6.60
2018-12-12T11:55:31.005Z,6.50
2018-12-12T12:00:33.939Z,6.50
2018-12-12T12:05:39.814Z,6.50
2018-12-12T12:10:42.747Z,6.40
2018-12-12T12:15:50.559Z,6.30
2018-12-12T12:20:58.344Z,6.20
2018-12-12T12:26:01.927Z,6.20
2018-12-12T12:31:08.114Z,6.20
2018-12-12T12:36:14.016Z,6.00
2018-12-12T12:41:18.463Z,5.70
2018-12-12T12:46:22.894Z,5.30
2018-12-12T12:51:28.786Z,5.20
2018-12-12T12:56:37.646Z,5.60
2018-12-12T13:01:46.547Z,5.80
2018-12-12T13:06:49.618Z,6.10
2018-12-12T13:11:52.605Z,6.30
2018-12-12T13:16:56.491Z,6.50
2018-12-12T13:22:00.030Z,6.80
2018-12-12T13:27:05.094Z,7.10
2018-12-12T13:32:08.978Z,7.10
2018-12-12T13:37:12.506Z,6.90
2018-12-12T13:42:16.406Z,6.70
2018-12-12T13:47:19.282Z,6.60
2018-12-12T13:52:25.274Z,6.60
2018-12-12T13:57:28.217Z,6.60
2018-12-12T14:02:34.386Z,6.40
2018-12-12T14:07:41.978Z,6.30
2018-12-12T14:12:45.022Z,6.30
2018-12-12T14:17:48.715Z,6.30
2018-12-12T14:22:57.678Z,6.20
2018-12-12T14:28:00.919Z,6.20
2018-12-12T14:33:04.611Z,6.10
2018-12-12T14:38:09.506Z,6.00
2018-12-12T14:43:12.496Z,5.90
2018-12-12T14:48:15.325Z,5.90
2018-12-12T14:53:19.961Z,5.90
2018-12-12T14:58:23.486Z,5.80
2018-12-12T15:03:26.995Z,5.70
2018-12-12T15:08:30.520Z,5.70
2018-12-12T15:13:33.986Z,5.60
2018-12-12T15:18:40.195Z,5.50
2018-12-12T15:23:44.006Z,5.50
2018-12-12T15:28:46.910Z,5.50
2018-12-12T15:33:50.612Z,5.60
2018-12-12T15:38:53.525Z,5.50
2018-12-12T15:43:56.471Z,5.50
2018-12-12T15:49:02.499Z,5.40
2018-12-12T15:54:05.444Z,5.40
2018-12-12T15:59:10.162Z,5.40
2018-12-12T16:04:14.250Z,5.30
2018-12-12T16:09:17.992Z,5.40
2018-12-12T16:14:20.903Z,5.30
2018-12-12T16:19:27.227Z,5.20
2018-12-12T16:24:30.504Z,5.20
2018-12-12T16:29:37.353Z,5.20
2018-12-12T16:34:40.923Z,5.10
2018-12-12T16:39:47.819Z,5.10
2018-12-12T16:44:51.746Z,5.00
2018-12-12T16:49:57.090Z,4.90
2018-12-12T16:54:59.990Z,4.90
2018-12-12T17:00:07.317Z,4.80
2018-12-12T17:05:11.014Z,4.80
2018-12-12T17:10:14.574Z,4.80
2018-12-12T17:15:18.046Z,4.80
2018-12-12T17:20:21.036Z,4.80
2018-12-12T17:25:24.543Z,4.80
2018-12-12T17:30:28.114Z,4.80
2018-12-12T17:35:30.958Z,4.80
2018-12-12T17:40:33.882Z,4.80
2018-12-12T17:45:39.782Z,4.70
2018-12-12T17:50:43.570Z,4.70
2018-12-12T17:55:46.476Z,4.70
2018-12-12T18:00:52.343Z,4.60
2018-12-12T18:05:59.226Z,4.60
2018-12-12T18:11:02.178Z,4.50
2018-12-12T18:16:06.722Z,4.40
2018-12-12T18:21:10.615Z,4.30
2018-12-12T18:26:16.042Z,4.10
2018-12-12T18:31:19.570Z,3.80
2018-12-12T18:36:26.763Z,3.60
2018-12-12T18:41:31.274Z,3.40
2018-12-12T18:46:38.902Z,3.30
2018-12-12T18:51:48.136Z,3.40
2018-12-12T18:56:54.290Z,3.60
2018-12-12T19:02:00.359Z,3.60
2018-12-12T19:07:03.483Z,3.60
2018-12-12T19:12:13.419Z,3.30
2018-12-12T19:17:19.390Z,3.00
2018-12-12T19:22:22.262Z,2.80
2018-12-12T19:27:25.410Z,2.70
2018-12-12T19:32:28.304Z,2.50
2018-12-12T19:37:37.337Z,2.40
2018-12-12T19:42:42.812Z,2.30
2018-12-12T19:47:45.778Z,2.30
2018-12-12T19:52:48.757Z,2.20
2018-12-12T19:57:52.731Z,2.10
2018-12-12T20:02:56.390Z,2.00
2018-12-12T20:07:59.377Z,1.90
2018-12-12T20:13:02.265Z,1.90
2018-12-12T20:18:05.662Z,1.80
2018-12-12T20:23:09.280Z,1.80
2018-12-12T20:28:15.144Z,1.70
2018-12-12T20:33:18.798Z,1.60
2018-12-12T20:38:22.682Z,1.60
2018-12-12T20:43:32.526Z,1.60
2018-12-12T20:48:41.191Z,1.70
2018-12-12T20:53:49.826Z,1.70
2018-12-12T20:58:58.790Z,1.60
2018-12-12T21:04:01.708Z,1.80
2018-12-12T21:09:11.672Z,1.90
2018-12-12T21:14:20.353Z,2.10
2018-12-12T21:50:49.848Z,1.60
2018-12-12T21:55:58.702Z,1.60
2018-12-12T22:01:07.416Z,1.60
2018-12-12T22:06:16.119Z,1.60
2018-12-12T22:11:20.032Z,1.40
2018-12-12T22:16:29.574Z,1.40
2018-12-12T22:21:39.190Z,1.30
2018-12-12T22:26:48.569Z,1.20
2018-12-12T22:31:51.498Z,1.30
2018-12-12T22:37:00.670Z,1.40
2018-12-12T22:42:03.882Z,1.60
2018-12-12T22:47:08.674Z,1.70
2018-12-12T22:52:11.682Z,1.70
2018-12-12T22:57:15.451Z,1.80
2018-12-12T23:02:21.616Z,1.90
2018-12-12T23:07:27.678Z,1.90
2018-12-12T23:12:30.541Z,2.00
2018-12-12T23:17:35.230Z,2.00
2018-12-12T23:22:38.709Z,2.10
2018-12-12T23:27:47.502Z,2.10
2018-12-12T23:32:56.302Z,2.20
2018-12-12T23:37:59.744Z,2.20
2018-12-12T23:43:08.686Z,2.20
2018-12-12T23:48:17.389Z,2.10
2018-12-12T23:53:26.212Z,1.90
